createdAt,value
2017-10-01T04:00:12.657Z,99.90
2017-10-01T04:02:40.218Z,99.90
2017-10-01T04:05:07.785Z,99.90
2017-10-01T04:07:35.321Z,99.90
2017-10-01T04:10:02.912Z,99.90
2017-10-01T04:12:31.244Z,99.90
2017-10-01T04:14:58.756Z,99.90
2017-10-01T04:17:26.293Z,99.90
2017-10-01T04:19:53.867Z,99.90
2017-10-01T04:22:22.148Z,99.90
2017-10-01T04:24:50.471Z,99.90
2017-10-01T04:27:18.054Z,99.90
2017-10-01T04:29:45.649Z,99.90
2017-10-01T04:32:13.190Z,99.90
2017-10-01T04:34:41.545Z,99.90
2017-10-01T04:37:09.864Z,99.90
2017-10-01T04:39:37.383Z,99.90
2017-10-01T04:42:04.952Z,99.90
2017-10-01T04:44:32.487Z,99.90
2017-10-01T04:47:00.014Z,99.90
2017-10-01T04:49:27.584Z,99.90
2017-10-01T04:51:55.116Z,99.90
2017-10-01T04:54:22.687Z,99.90
2017-10-01T04:56:50.204Z,99.90
2017-10-01T04:59:18.500Z,99.90
2017-10-01T05:01:46.066Z,99.90
2017-10-01T05:04:13.630Z,99.90
2017-10-01T05:06:41.148Z,99.90
2017-10-01T05:09:09.450Z,99.90
2017-10-01T05:11:37.022Z,99.90
2017-10-01T05:14:04.600Z,99.90
2017-10-01T05:16:32.128Z,99.90
2017-10-01T05:18:59.692Z,99.90
2017-10-01T05:21:27.224Z,99.90
2017-10-01T05:23:54.839Z,99.90
2017-10-01T05:26:22.381Z,99.90
2017-10-01T05:28:49.903Z,99.90
2017-10-01T05:31:18.229Z,99.90
2017-10-01T05:33:45.781Z,99.90
2017-10-01T05:36:13.308Z,99.90
2017-10-01T05:38:40.880Z,99.90
2017-10-01T05:41:08.400Z,99.90
2017-10-01T05:43:36.686Z,99.90
2017-10-01T05:46:05.008Z,99.90
2017-10-01T05:48:32.537Z,99.90
2017-10-01T05:51:00.102Z,99.90
2017-10-01T05:53:27.674Z,99.90
2017-10-01T05:55:55.205Z,99.90
2017-10-01T05:58:22.768Z,99.90
2017-10-01T06:00:50.312Z,99.90
2017-10-01T06:03:17.872Z,99.90
2017-10-01T06:05:45.404Z,99.90
2017-10-01T06:08:12.924Z,99.90
2017-10-01T06:10:40.473Z,99.90
2017-10-01T06:13:07.991Z,99.90
2017-10-01T06:15:36.321Z,99.90
2017-10-01T06:18:03.831Z,99.90
2017-10-01T06:20:31.397Z,99.90
2017-10-01T06:22:58.924Z,99.90
2017-10-01T06:25:26.445Z,99.90
2017-10-01T06:27:54.004Z,99.90
2017-10-01T06:30:21.532Z,99.90
2017-10-01T06:32:49.080Z,99.90
2017-10-01T06:35:17.367Z,99.90
2017-10-01T06:37:44.931Z,99.90
2017-10-01T06:40:12.461Z,99.90
2017-10-01T06:42:40.777Z,99.90
2017-10-01T06:45:08.336Z,99.90
2017-10-01T06:47:35.918Z,99.90
2017-10-01T06:50:03.442Z,99.90
2017-10-01T06:52:30.969Z,99.90
2017-10-01T06:54:59.293Z,99.90
2017-10-01T06:57:26.808Z,99.90
2017-10-01T06:59:55.135Z,99.90
2017-10-01T07:02:22.683Z,99.90
2017-10-01T07:04:50.237Z,99.90
2017-10-01T07:07:17.788Z,99.90
2017-10-01T07:09:45.295Z,99.90
2017-10-01T07:12:12.815Z,99.90
2017-10-01T07:14:40.356Z,99.90
2017-10-01T07:17:07.908Z,99.90
2017-10-01T07:19:35.498Z,99.90
2017-10-01T07:22:03.020Z,99.90
2017-10-01T07:24:30.536Z,99.90
2017-10-01T07:26:58.101Z,99.90
2017-10-01T07:29:25.617Z,99.90
2017-10-01T07:31:53.144Z,99.90
2017-10-01T07:34:20.696Z,99.90
2017-10-01T07:36:48.228Z,99.90
2017-10-01T07:39:15.785Z,99.90
2017-10-01T07:41:43.317Z,99.90
2017-10-01T07:44:10.880Z,99.90
2017-10-01T07:46:38.411Z,99.90
2017-10-01T07:49:06.000Z,99.90
2017-10-01T07:51:33.536Z,99.90
2017-10-01T07:54:01.063Z,99.90
2017-10-01T07:56:28.621Z,99.90
2017-10-01T07:58:56.143Z,99.90
2017-10-01T08:01:23.707Z,99.90
2017-10-01T08:03:51.277Z,99.90
2017-10-01T08:06:18.861Z,99.90
2017-10-01T08:08:46.406Z,99.90
2017-10-01T08:11:13.936Z,99.90
2017-10-01T08:13:41.499Z,99.90
2017-10-01T08:16:09.053Z,99.90
2017-10-01T08:18:37.363Z,99.90
2017-10-01T08:21:04.980Z,99.90
2017-10-01T08:23:32.508Z,99.90
2017-10-01T08:26:00.120Z,99.90
2017-10-01T08:28:28.434Z,99.90
2017-10-01T08:30:55.960Z,99.90
2017-10-01T08:33:24.279Z,99.90
2017-10-01T08:35:51.834Z,99.90
2017-10-01T08:38:19.358Z,99.90
2017-10-01T08:40:46.887Z,99.90
2017-10-01T08:43:14.452Z,99.90
2017-10-01T08:45:42.021Z,99.90
2017-10-01T08:48:09.963Z,99.90
2017-10-01T08:50:37.516Z,99.90
2017-10-01T08:53:05.061Z,99.90
2017-10-01T08:55:32.629Z,99.90
2017-10-01T08:58:00.155Z,99.90
2017-10-01T09:00:27.716Z,99.90
2017-10-01T09:02:55.237Z,99.90
2017-10-01T09:05:23.560Z,99.90
2017-10-01T09:07:51.077Z,99.90
2017-10-01T09:10:18.593Z,99.90
2017-10-01T09:12:46.187Z,99.90
2017-10-01T09:15:14.491Z,99.90
2017-10-01T09:17:42.050Z,99.90
2017-10-01T09:20:09.603Z,99.90
2017-10-01T09:22:37.132Z,99.90
2017-10-01T09:25:05.427Z,99.90
2017-10-01T09:27:32.983Z,99.90
2017-10-01T09:30:00.551Z,99.90
2017-10-01T09:32:28.120Z,99.90
2017-10-01T09:34:55.640Z,99.90
2017-10-01T09:37:23.935Z,99.90
2017-10-01T09:39:51.485Z,99.90
2017-10-01T09:42:19.047Z,99.90
2017-10-01T09:44:46.590Z,99.90
2017-10-01T09:47:14.103Z,99.90
2017-10-01T09:49:41.663Z,99.90
2017-10-01T09:52:09.179Z,99.90
2017-10-01T09:54:36.741Z,99.90
2017-10-01T09:57:04.264Z,99.90
2017-10-01T09:59:31.787Z,99.60
2017-10-01T10:01:59.336Z,99.90
2017-10-01T10:04:26.857Z,99.30
2017-10-01T10:06:55.189Z,98.90
2017-10-01T10:09:22.738Z,98.80
2017-10-01T10:11:50.279Z,98.60
2017-10-01T10:14:17.795Z,97.30
2017-10-01T10:16:45.314Z,98.30
2017-10-01T10:19:12.851Z,99.20
2017-10-01T10:21:40.369Z,97.30
2017-10-01T10:24:08.687Z,98.80
2017-10-01T10:26:36.202Z,98.70
2017-10-01T10:29:04.511Z,98.40
2017-10-01T10:31:32.041Z,98.40
2017-10-01T10:34:00.356Z,95.90
2017-10-01T10:36:27.867Z,95.90
2017-10-01T10:38:56.195Z,96.90
2017-10-01T10:41:23.715Z,96.90
2017-10-01T10:43:51.245Z,96.10
2017-10-01T10:46:18.799Z,97.20
2017-10-01T10:48:46.367Z,97.10
2017-10-01T10:51:14.656Z,97.30
2017-10-01T10:53:42.936Z,97.50
2017-10-01T10:56:10.478Z,97.50
2017-10-01T10:58:38.766Z,95.70
2017-10-01T11:01:07.073Z,95.00
2017-10-01T11:03:34.621Z,94.90
2017-10-01T11:06:02.143Z,96.20
2017-10-01T11:08:29.709Z,96.00
2017-10-01T11:10:57.992Z,95.00
2017-10-01T11:13:26.288Z,96.40
2017-10-01T11:15:53.828Z,96.30
2017-10-01T11:18:22.166Z,96.10
2017-10-01T11:20:49.673Z,96.10
2017-10-01T11:23:17.192Z,96.60
2017-10-01T11:25:44.748Z,97.40
2017-10-01T11:28:12.284Z,97.00
2017-10-01T11:30:39.805Z,95.40
2017-10-01T11:33:07.391Z,95.50
2017-10-01T11:35:34.903Z,94.30
2017-10-01T11:38:03.220Z,93.00
2017-10-01T11:40:30.746Z,93.00
2017-10-01T11:42:58.296Z,93.00
2017-10-01T11:45:25.884Z,93.10
2017-10-01T11:47:53.396Z,92.20
2017-10-01T11:50:21.726Z,93.90
2017-10-01T11:52:49.246Z,93.90
2017-10-01T11:55:17.520Z,94.00
2017-10-01T11:57:45.076Z,93.70
2017-10-01T12:00:13.353Z,94.20
2017-10-01T12:02:41.633Z,93.70
2017-10-01T12:05:09.227Z,93.70
2017-10-01T12:07:36.805Z,93.40
2017-10-01T12:10:04.360Z,94.90
2017-10-01T12:12:31.876Z,93.80
2017-10-01T12:14:59.389Z,95.40
2017-10-01T12:17:26.941Z,95.00
2017-10-01T12:19:54.504Z,93.30
2017-10-01T12:22:22.018Z,94.20
2017-10-01T12:24:49.531Z,94.60
2017-10-01T12:27:17.853Z,95.80
2017-10-01T12:29:45.379Z,95.80
2017-10-01T12:32:13.699Z,96.60
2017-10-01T12:34:41.210Z,96.60
2017-10-01T12:37:09.524Z,95.20
2017-10-01T12:39:37.852Z,94.60
2017-10-01T12:42:06.175Z,94.70
2017-10-01T12:44:33.742Z,94.60
2017-10-01T12:47:01.261Z,94.10
2017-10-01T12:49:28.771Z,94.70
2017-10-01T12:51:56.311Z,94.90
2017-10-01T12:54:23.850Z,96.50
2017-10-01T12:56:51.365Z,95.40
2017-10-01T12:59:18.932Z,95.00
2017-10-01T13:01:52.933Z,95.50
2017-10-01T13:04:20.492Z,95.50
2017-10-01T13:06:48.004Z,96.40
2017-10-01T13:09:15.532Z,96.30
2017-10-01T13:11:43.267Z,95.80
2017-10-01T13:14:10.816Z,97.40
2017-10-01T13:16:38.335Z,96.50
2017-10-01T13:19:05.861Z,96.60
2017-10-01T13:21:34.171Z,96.30
2017-10-01T13:24:01.689Z,96.30
2017-10-01T13:26:30.000Z,95.40
2017-10-01T13:28:57.519Z,95.30
2017-10-01T13:31:25.800Z,93.10
2017-10-01T13:33:54.107Z,93.60
2017-10-01T13:36:21.624Z,93.60
2017-10-01T13:38:49.944Z,96.50
2017-10-01T13:41:17.500Z,96.50
2017-10-01T13:43:45.033Z,95.30
2017-10-01T13:46:12.584Z,93.20
2017-10-01T13:48:40.856Z,94.50
2017-10-01T13:51:09.140Z,96.00
2017-10-01T13:53:36.695Z,95.90
2017-10-01T13:56:04.967Z,96.70
2017-10-01T13:58:33.248Z,96.70
2017-10-01T14:01:00.803Z,96.70
2017-10-01T14:03:29.087Z,95.80
2017-10-01T14:05:56.638Z,95.70
2017-10-01T14:08:24.919Z,96.50
2017-10-01T14:10:52.492Z,96.50
2017-10-01T14:13:20.003Z,97.60
2017-10-01T14:15:47.558Z,95.30
2017-10-01T14:18:15.112Z,96.50
2017-10-01T14:20:42.730Z,96.30
2017-10-01T14:23:10.329Z,95.80
2017-10-01T14:25:38.012Z,96.40
2017-10-01T14:28:06.296Z,96.60
2017-10-01T14:30:39.474Z,96.60
2017-10-01T14:33:07.760Z,97.00
2017-10-01T14:35:36.040Z,97.20
2017-10-01T14:38:03.591Z,97.20
2017-10-01T14:40:31.892Z,96.90
2017-10-01T14:42:59.431Z,96.90
2017-10-01T14:45:26.994Z,97.80
2017-10-01T14:47:54.528Z,97.50
2017-10-01T14:50:22.824Z,96.80
2017-10-01T14:52:50.382Z,96.80
2017-10-01T14:55:18.656Z,96.90
2017-10-01T14:57:46.207Z,96.80
2017-10-01T15:00:14.483Z,96.20
2017-10-01T15:02:42.839Z,97.30
2017-10-01T15:05:10.356Z,97.30
2017-10-01T15:07:37.930Z,97.70
2017-10-01T15:10:05.472Z,97.00
2017-10-01T15:12:32.980Z,98.10
2017-10-01T15:15:01.296Z,96.80
2017-10-01T15:17:28.844Z,96.80
2017-10-01T15:19:56.356Z,97.50
2017-10-01T15:22:23.928Z,97.00
2017-10-01T15:24:51.447Z,96.50
2017-10-01T15:27:18.984Z,96.30
2017-10-01T15:29:46.572Z,97.20
2017-10-01T15:32:14.121Z,97.20
2017-10-01T15:34:41.648Z,98.10
2017-10-01T15:37:09.195Z,99.00
2017-10-01T15:39:36.769Z,98.30
2017-10-01T15:42:04.292Z,98.00
2017-10-01T15:44:31.823Z,97.80
2017-10-01T15:46:59.399Z,98.20
2017-10-01T15:49:27.018Z,98.60
2017-10-01T15:51:54.539Z,98.80
2017-10-01T15:54:22.091Z,98.20
2017-10-01T15:56:50.372Z,99.00
2017-10-01T15:59:18.687Z,99.70
2017-10-01T16:01:46.201Z,99.70
2017-10-01T16:04:14.475Z,99.60
2017-10-01T16:06:42.792Z,99.60
2017-10-01T16:09:10.343Z,99.50
2017-10-01T16:11:37.888Z,99.90
2017-10-01T16:14:05.543Z,99.40
2017-10-01T16:16:33.091Z,99.90
2017-10-01T16:19:00.610Z,99.10
2017-10-01T16:21:28.158Z,99.00
2017-10-01T16:23:55.716Z,99.50
2017-10-01T16:26:23.240Z,99.80
2017-10-01T16:28:50.759Z,98.50
2017-10-01T16:31:19.140Z,97.40
2017-10-01T16:33:47.431Z,98.70
2017-10-01T16:36:14.960Z,98.70
2017-10-01T16:38:42.508Z,99.40
2017-10-01T16:41:10.060Z,99.80
2017-10-01T16:43:37.600Z,99.90
2017-10-01T16:46:05.112Z,99.80
2017-10-01T16:48:33.424Z,99.90
2017-10-01T16:51:00.939Z,99.90
2017-10-01T16:53:29.252Z,99.90
2017-10-01T16:55:56.820Z,99.90
2017-10-01T16:58:24.330Z,99.90
2017-10-01T17:03:14.973Z,99.90
2017-10-01T17:05:42.488Z,99.90
2017-10-01T17:08:10.810Z,99.90
2017-10-01T17:10:38.329Z,99.90
2017-10-01T17:13:06.661Z,99.90
2017-10-01T17:15:34.187Z,99.90
2017-10-01T17:18:01.773Z,99.90
2017-10-01T17:20:29.308Z,99.90
2017-10-01T17:22:56.824Z,99.90
2017-10-01T17:25:24.389Z,99.90
2017-10-01T17:27:52.695Z,99.90
2017-10-01T17:30:20.225Z,99.90
2017-10-01T17:32:48.560Z,99.90
2017-10-01T17:35:16.125Z,99.90
2017-10-01T17:37:43.695Z,99.70
2017-10-01T17:40:11.232Z,99.30
2017-10-01T17:42:38.797Z,99.00
2017-10-01T17:45:06.318Z,98.60
2017-10-01T17:47:33.880Z,98.20
2017-10-01T17:50:01.409Z,98.30
2017-10-01T17:52:29.692Z,98.40
2017-10-01T17:54:58.005Z,97.70
2017-10-01T17:57:25.516Z,97.70
2017-10-01T17:59:53.837Z,98.10
2017-10-01T18:02:21.368Z,98.10
2017-10-01T18:04:48.921Z,98.30
2017-10-01T18:07:16.483Z,98.30
2017-10-01T18:09:44.048Z,98.50
2017-10-01T18:12:11.617Z,98.50
2017-10-01T18:14:39.133Z,98.90
2017-10-01T18:17:07.485Z,99.10
2017-10-01T18:19:35.015Z,99.10
2017-10-01T18:22:02.540Z,99.50
2017-10-01T18:24:30.871Z,99.20
2017-10-01T18:26:58.383Z,99.20
2017-10-01T18:29:25.932Z,99.30
2017-10-01T18:31:54.217Z,99.90
2017-10-01T18:34:21.780Z,99.90
2017-10-01T18:36:49.315Z,99.40
2017-10-01T18:39:17.656Z,99.50
2017-10-01T18:41:45.182Z,99.50
2017-10-01T18:44:12.700Z,99.90
2017-10-01T18:46:41.031Z,99.90
2017-10-01T18:49:08.561Z,99.90
2017-10-01T18:51:36.119Z,99.90
2017-10-01T18:54:03.660Z,99.90
2017-10-01T18:56:31.993Z,99.90
2017-10-01T18:58:59.559Z,99.90
2017-10-01T19:01:27.110Z,99.90
2017-10-01T19:03:54.976Z,99.90
2017-10-01T19:06:22.508Z,99.90
2017-10-01T19:08:51.725Z,99.80
2017-10-01T19:11:19.291Z,99.90
2017-10-01T19:13:46.913Z,99.90
2017-10-01T19:16:14.492Z,99.90
2017-10-01T19:18:43.628Z,99.90
2017-10-01T19:21:13.176Z,99.90
2017-10-01T19:23:40.705Z,99.90
2017-10-01T19:26:08.290Z,99.90
2017-10-01T19:28:35.903Z,99.90
2017-10-01T19:31:03.419Z,99.80
2017-10-01T19:33:30.980Z,99.90
2017-10-01T19:35:58.596Z,99.90
2017-10-01T19:41:03.581Z,99.50
2017-10-01T19:43:31.318Z,99.90
2017-10-01T19:45:58.860Z,99.70
2017-10-01T19:48:27.179Z,99.90
2017-10-01T19:50:54.748Z,99.90
2017-10-01T19:53:22.298Z,99.80
2017-10-01T19:55:49.882Z,99.90
2017-10-01T19:58:17.453Z,99.90
2017-10-01T20:00:45.015Z,99.90
2017-10-01T20:03:12.581Z,99.90
2017-10-01T20:05:40.881Z,99.90
2017-10-01T20:08:08.518Z,99.90
2017-10-01T20:10:36.824Z,99.90
2017-10-01T20:13:04.391Z,99.90
2017-10-01T20:15:31.980Z,99.90
2017-10-01T20:17:59.532Z,99.90
2017-10-01T20:20:27.131Z,99.90
2017-10-01T20:22:55.432Z,99.90
2017-10-01T20:25:22.994Z,99.90
2017-10-01T20:27:50.528Z,99.90
2017-10-01T20:30:18.844Z,99.90
2017-10-01T20:32:47.236Z,99.90
2017-10-01T20:35:14.752Z,99.90
2017-10-01T20:37:42.276Z,99.90
2017-10-01T20:40:10.700Z,99.90
2017-10-01T20:42:38.281Z,99.90
2017-10-01T20:45:05.822Z,99.90
2017-10-01T20:47:33.396Z,99.90
2017-10-01T20:50:00.961Z,99.90
2017-10-01T20:52:28.475Z,99.90
2017-10-01T20:54:56.105Z,99.90
2017-10-01T20:57:24.320Z,99.90
2017-10-01T20:59:51.931Z,99.90
2017-10-01T21:02:19.589Z,99.90
2017-10-01T21:04:47.955Z,99.90
2017-10-01T21:07:15.469Z,99.90
2017-10-01T21:09:43.004Z,99.90
2017-10-01T21:12:10.652Z,99.90
2017-10-01T21:14:38.984Z,99.90
2017-10-01T21:17:06.508Z,99.90
2017-10-01T21:19:34.199Z,99.90
2017-10-01T21:22:02.271Z,99.90
2017-10-01T21:24:29.855Z,99.90
2017-10-01T21:26:57.385Z,99.90
2017-10-01T21:29:24.949Z,99.90
2017-10-01T21:31:53.296Z,99.90
2017-10-01T21:34:20.831Z,99.90
2017-10-01T21:36:49.128Z,99.90
2017-10-01T21:39:16.694Z,99.90
2017-10-01T21:41:44.215Z,99.90
2017-10-01T21:44:11.732Z,99.90
2017-10-01T21:46:39.291Z,99.90
2017-10-01T21:49:06.812Z,99.90
2017-10-01T21:51:35.141Z,99.90
2017-10-01T21:54:02.674Z,99.90
